sensor_id;sensor_type;location;lat;lon;timestamp;P1;durP1;ratioP1;P2;durP2;ratioP2
19830;SDS011;10076;52.008;4.708;2023-09-12T00:02:02;74.75;;;60.90;;
19830;SDS011;10076;52.008;4.708;2023-09-12T00:04:29;76.85;;;63.40;;
19830;SDS011;10076;52.008;4.708;2023-09-12T00:06:54;78.80;;;65.97;;
19830;SDS011;10076;52.008;4.708;2023-09-12T00:09:19;79.72;;;66.47;;
19830;SDS011;10076;52.008;4.708;2023-09-12T00:11:44;78.20;;;62.92;;
19830;SDS011;10076;52.008;4.708;2023-09-12T00:14:10;78.32;;;62.83;;
19830;SDS011;10076;52.008;4.708;2023-09-12T00:16:40;72.88;;;58.83;;
19830;SDS011;10076;52.008;4.708;2023-09-12T00:19:06;73.63;;;58.80;;
19830;SDS011;10076;52.008;4.708;2023-09-12T00:21:31;79.30;;;61.58;;
19830;SDS011;10076;52.008;4.708;2023-09-12T00:23:56;71.13;;;58.67;;
19830;SDS011;10076;52.008;4.708;2023-09-12T00:26:22;74.57;;;60.47;;
19830;SDS011;10076;52.008;4.708;2023-09-12T00:28:47;74.68;;;60.20;;
19830;SDS011;10076;52.008;4.708;2023-09-12T00:31:12;74.40;;;60.10;;
19830;SDS011;10076;52.008;4.708;2023-09-12T00:33:38;69.15;;;61.65;;
19830;SDS011;10076;52.008;4.708;2023-09-12T00:36:03;67.40;;;56.85;;
19830;SDS011;10076;52.008;4.708;2023-09-12T00:38:29;67.68;;;57.60;;
19830;SDS011;10076;52.008;4.708;2023-09-12T00:40:54;64.40;;;55.33;;
19830;SDS011;10076;52.008;4.708;2023-09-12T00:43:20;62.25;;;54.60;;
19830;SDS011;10076;52.008;4.708;2023-09-12T00:45:45;59.22;;;52.95;;
19830;SDS011;10076;52.008;4.708;2023-09-12T00:48:10;62.05;;;55.55;;
19830;SDS011;10076;52.008;4.708;2023-09-12T00:50:37;64.15;;;57.80;;
19830;SDS011;10076;52.008;4.708;2023-09-12T00:53:04;62.78;;;56.22;;
19830;SDS011;10076;52.008;4.708;2023-09-12T00:55:31;68.00;;;60.92;;
19830;SDS011;10076;52.008;4.708;2023-09-12T00:57:59;66.32;;;59.50;;
19830;SDS011;10076;52.008;4.708;2023-09-12T01:00:26;62.92;;;56.47;;
19830;SDS011;10076;52.008;4.708;2023-09-12T01:02:52;61.70;;;55.60;;
19830;SDS011;10076;52.008;4.708;2023-09-12T01:05:19;65.28;;;58.97;;
19830;SDS011;10076;52.008;4.708;2023-09-12T01:07:46;57.85;;;51.75;;
19830;SDS011;10076;52.008;4.708;2023-09-12T01:10:11;59.13;;;53.33;;
19830;SDS011;10076;52.008;4.708;2023-09-12T01:12:36;59.45;;;53.63;;
19830;SDS011;10076;52.008;4.708;2023-09-12T01:15:03;58.83;;;52.88;;
19830;SDS011;10076;52.008;4.708;2023-09-12T01:17:33;60.83;;;54.75;;
19830;SDS011;10076;52.008;4.708;2023-09-12T01:19:58;61.35;;;55.05;;
19830;SDS011;10076;52.008;4.708;2023-09-12T01:25:29;58.75;;;52.70;;
19830;SDS011;10076;52.008;4.708;2023-09-12T01:28:12;61.70;;;55.17;;
19830;SDS011;10076;52.008;4.708;2023-09-12T01:30:40;58.05;;;51.30;;
19830;SDS011;10076;52.008;4.708;2023-09-12T01:33:07;59.05;;;52.97;;
19830;SDS011;10076;52.008;4.708;2023-09-12T01:35:32;59.08;;;52.72;;
19830;SDS011;10076;52.008;4.708;2023-09-12T01:37:58;60.80;;;54.40;;
19830;SDS011;10076;52.008;4.708;2023-09-12T01:40:27;60.22;;;53.65;;
19830;SDS011;10076;52.008;4.708;2023-09-12T01:43:02;61.75;;;55.40;;
19830;SDS011;10076;52.008;4.708;2023-09-12T01:45:30;60.00;;;53.58;;
19830;SDS011;10076;52.008;4.708;2023-09-12T01:47:56;61.08;;;54.47;;
19830;SDS011;10076;52.008;4.708;2023-09-12T01:50:23;58.03;;;51.97;;
19830;SDS011;10076;52.008;4.708;2023-09-12T01:52:52;58.53;;;52.17;;
19830;SDS011;10076;52.008;4.708;2023-09-12T01:55:18;62.10;;;53.97;;
19830;SDS011;10076;52.008;4.708;2023-09-12T01:57:44;56.25;;;50.25;;
19830;SDS011;10076;52.008;4.708;2023-09-12T02:00:09;57.72;;;51.53;;
19830;SDS011;10076;52.008;4.708;2023-09-12T02:02:37;60.17;;;53.25;;
19830;SDS011;10076;52.008;4.708;2023-09-12T02:05:10;57.80;;;50.38;;
19830;SDS011;10076;52.008;4.708;2023-09-12T02:07:40;57.50;;;51.13;;
19830;SDS011;10076;52.008;4.708;2023-09-12T02:10:06;58.42;;;51.72;;
19830;SDS011;10076;52.008;4.708;2023-09-12T02:12:32;61.03;;;53.78;;
19830;SDS011;10076;52.008;4.708;2023-09-12T02:14:58;61.13;;;51.97;;
19830;SDS011;10076;52.008;4.708;2023-09-12T02:17:23;65.97;;;52.05;;
19830;SDS011;10076;52.008;4.708;2023-09-12T02:19:48;57.50;;;51.30;;
19830;SDS011;10076;52.008;4.708;2023-09-12T02:22:14;58.65;;;52.75;;
19830;SDS011;10076;52.008;4.708;2023-09-12T02:24:39;59.92;;;53.83;;
19830;SDS011;10076;52.008;4.708;2023-09-12T02:27:05;53.92;;;48.42;;
19830;SDS011;10076;52.008;4.708;2023-09-12T02:29:30;57.63;;;51.67;;
19830;SDS011;10076;52.008;4.708;2023-09-12T02:31:57;55.45;;;49.75;;
19830;SDS011;10076;52.008;4.708;2023-09-12T02:34:22;54.22;;;48.40;;
19830;SDS011;10076;52.008;4.708;2023-09-12T02:36:48;55.75;;;50.13;;
19830;SDS011;10076;52.008;4.708;2023-09-12T02:39:13;58.45;;;52.08;;
19830;SDS011;10076;52.008;4.708;2023-09-12T02:41:39;60.25;;;53.92;;
19830;SDS011;10076;52.008;4.708;2023-09-12T02:44:04;58.65;;;52.60;;
19830;SDS011;10076;52.008;4.708;2023-09-12T02:46:30;57.65;;;51.33;;
19830;SDS011;10076;52.008;4.708;2023-09-12T02:48:55;60.15;;;54.10;;
19830;SDS011;10076;52.008;4.708;2023-09-12T02:51:20;60.15;;;53.75;;
19830;SDS011;10076;52.008;4.708;2023-09-12T02:53:46;63.10;;;56.58;;
19830;SDS011;10076;52.008;4.708;2023-09-12T02:56:11;60.08;;;53.58;;
19830;SDS011;10076;52.008;4.708;2023-09-12T02:58:37;58.33;;;52.05;;
19830;SDS011;10076;52.008;4.708;2023-09-12T03:01:02;59.00;;;52.78;;
19830;SDS011;10076;52.008;4.708;2023-09-12T03:03:30;60.40;;;53.90;;
19830;SDS011;10076;52.008;4.708;2023-09-12T03:06:01;58.35;;;52.30;;
19830;SDS011;10076;52.008;4.708;2023-09-12T03:08:29;58.25;;;49.85;;
19830;SDS011;10076;52.008;4.708;2023-09-12T03:10:55;55.83;;;49.83;;
19830;SDS011;10076;52.008;4.708;2023-09-12T03:13:23;57.20;;;51.03;;
19830;SDS011;10076;52.008;4.708;2023-09-12T03:15:49;56.40;;;50.35;;
19830;SDS011;10076;52.008;4.708;2023-09-12T03:18:15;57.63;;;51.67;;
19830;SDS011;10076;52.008;4.708;2023-09-12T03:20:40;56.83;;;50.78;;
19830;SDS011;10076;52.008;4.708;2023-09-12T03:23:05;55.53;;;49.65;;
19830;SDS011;10076;52.008;4.708;2023-09-12T03:25:34;56.08;;;50.38;;
19830;SDS011;10076;52.008;4.708;2023-09-12T03:28:00;56.42;;;50.30;;
19830;SDS011;10076;52.008;4.708;2023-09-12T03:30:27;56.90;;;50.83;;
19830;SDS011;10076;52.008;4.708;2023-09-12T03:32:52;56.20;;;49.75;;
19830;SDS011;10076;52.008;4.708;2023-09-12T03:35:18;57.08;;;50.55;;
19830;SDS011;10076;52.008;4.708;2023-09-12T03:37:43;61.40;;;51.03;;
19830;SDS011;10076;52.008;4.708;2023-09-12T03:40:08;57.08;;;50.78;;
19830;SDS011;10076;52.008;4.708;2023-09-12T03:42:35;57.90;;;50.47;;
19830;SDS011;10076;52.008;4.708;2023-09-12T03:45:00;61.03;;;52.47;;
19830;SDS011;10076;52.008;4.708;2023-09-12T03:47:25;55.88;;;49.58;;
19830;SDS011;10076;52.008;4.708;2023-09-12T03:49:51;59.60;;;49.92;;
19830;SDS011;10076;52.008;4.708;2023-09-12T03:52:16;60.05;;;50.25;;
19830;SDS011;10076;52.008;4.708;2023-09-12T03:54:41;57.28;;;48.97;;
19830;SDS011;10076;52.008;4.708;2023-09-12T03:57:07;60.60;;;51.53;;
19830;SDS011;10076;52.008;4.708;2023-09-12T03:59:32;61.60;;;50.03;;
19830;SDS011;10076;52.008;4.708;2023-09-12T04:01:58;61.97;;;52.70;;
19830;SDS011;10076;52.008;4.708;2023-09-12T04:04:23;58.15;;;50.50;;
19830;SDS011;10076;52.008;4.708;2023-09-12T04:06:48;56.38;;;45.88;;
19830;SDS011;10076;52.008;4.708;2023-09-12T04:09:13;58.70;;;46.90;;
19830;SDS011;10076;52.008;4.708;2023-09-12T04:11:39;59.83;;;46.75;;
19830;SDS011;10076;52.008;4.708;2023-09-12T04:14:04;56.90;;;48.85;;
19830;SDS011;10076;52.008;4.708;2023-09-12T04:16:29;62.47;;;50.58;;
19830;SDS011;10076;52.008;4.708;2023-09-12T04:18:55;58.13;;;50.55;;
19830;SDS011;10076;52.008;4.708;2023-09-12T04:21:20;56.47;;;50.20;;
19830;SDS011;10076;52.008;4.708;2023-09-12T04:23:45;56.25;;;48.67;;
19830;SDS011;10076;52.008;4.708;2023-09-12T04:26:11;56.50;;;47.30;;
19830;SDS011;10076;52.008;4.708;2023-09-12T04:28:36;56.92;;;45.25;;
19830;SDS011;10076;52.008;4.708;2023-09-12T04:31:02;56.00;;;44.58;;
19830;SDS011;10076;52.008;4.708;2023-09-12T04:33:28;54.80;;;41.75;;
19830;SDS011;10076;52.008;4.708;2023-09-12T04:35:53;53.35;;;41.70;;
19830;SDS011;10076;52.008;4.708;2023-09-12T04:38:19;55.70;;;44.10;;
19830;SDS011;10076;52.008;4.708;2023-09-12T04:40:52;53.20;;;45.88;;
19830;SDS011;10076;52.008;4.708;2023-09-12T04:43:19;53.47;;;43.33;;
19830;SDS011;10076;52.008;4.708;2023-09-12T04:45:44;51.65;;;40.92;;
19830;SDS011;10076;52.008;4.708;2023-09-12T04:48:09;52.28;;;44.25;;
19830;SDS011;10076;52.008;4.708;2023-09-12T04:50:39;54.45;;;42.33;;
19830;SDS011;10076;52.008;4.708;2023-09-12T04:53:06;54.97;;;42.65;;
19830;SDS011;10076;52.008;4.708;2023-09-12T04:55:31;56.95;;;40.42;;
19830;SDS011;10076;52.008;4.708;2023-09-12T04:57:56;52.38;;;39.28;;
19830;SDS011;10076;52.008;4.708;2023-09-12T05:00:22;54.92;;;40.55;;
19830;SDS011;10076;52.008;4.708;2023-09-12T05:02:47;51.88;;;41.88;;
19830;SDS011;10076;52.008;4.708;2023-09-12T05:05:12;55.25;;;44.85;;
19830;SDS011;10076;52.008;4.708;2023-09-12T05:07:38;54.08;;;44.05;;
19830;SDS011;10076;52.008;4.708;2023-09-12T05:10:03;55.10;;;46.05;;
19830;SDS011;10076;52.008;4.708;2023-09-12T05:12:29;54.75;;;45.10;;
19830;SDS011;10076;52.008;4.708;2023-09-12T05:14:54;55.78;;;44.35;;
19830;SDS011;10076;52.008;4.708;2023-09-12T05:17:19;53.60;;;45.65;;
19830;SDS011;10076;52.008;4.708;2023-09-12T05:19:44;56.63;;;44.92;;
19830;SDS011;10076;52.008;4.708;2023-09-12T05:22:10;59.85;;;50.78;;
19830;SDS011;10076;52.008;4.708;2023-09-12T05:24:35;54.28;;;48.42;;
19830;SDS011;10076;52.008;4.708;2023-09-12T05:27:00;54.55;;;48.53;;
19830;SDS011;10076;52.008;4.708;2023-09-12T05:29:26;58.33;;;47.92;;
19830;SDS011;10076;52.008;4.708;2023-09-12T05:31:51;57.00;;;50.45;;
19830;SDS011;10076;52.008;4.708;2023-09-12T05:34:17;59.08;;;47.35;;
19830;SDS011;10076;52.008;4.708;2023-09-12T05:36:42;59.97;;;48.38;;
19830;SDS011;10076;52.008;4.708;2023-09-12T05:39:07;57.70;;;44.92;;
19830;SDS011;10076;52.008;4.708;2023-09-12T05:41:34;57.38;;;45.13;;
19830;SDS011;10076;52.008;4.708;2023-09-12T05:43:59;59.00;;;46.35;;
19830;SDS011;10076;52.008;4.708;2023-09-12T05:46:24;67.47;;;52.90;;
19830;SDS011;10076;52.008;4.708;2023-09-12T05:48:50;60.10;;;48.22;;
19830;SDS011;10076;52.008;4.708;2023-09-12T05:51:15;59.42;;;45.90;;
19830;SDS011;10076;52.008;4.708;2023-09-12T05:53:40;63.22;;;46.55;;
19830;SDS011;10076;52.008;4.708;2023-09-12T05:56:06;62.95;;;48.10;;
19830;SDS011;10076;52.008;4.708;2023-09-12T05:58:31;63.95;;;45.47;;
19830;SDS011;10076;52.008;4.708;2023-09-12T06:00:56;60.90;;;46.00;;
19830;SDS011;10076;52.008;4.708;2023-09-12T06:03:22;59.47;;;44.92;;
19830;SDS011;10076;52.008;4.708;2023-09-12T06:05:47;64.63;;;47.35;;
19830;SDS011;10076;52.008;4.708;2023-09-12T06:08:12;58.20;;;45.15;;
19830;SDS011;10076;52.008;4.708;2023-09-12T06:10:38;62.25;;;43.47;;
19830;SDS011;10076;52.008;4.708;2023-09-12T06:13:03;99.25;;;58.30;;
19830;SDS011;10076;52.008;4.708;2023-09-12T06:15:28;61.55;;;44.70;;
19830;SDS011;10076;52.008;4.708;2023-09-12T06:17:54;58.90;;;44.05;;
19830;SDS011;10076;52.008;4.708;2023-09-12T06:20:20;60.33;;;42.65;;
19830;SDS011;10076;52.008;4.708;2023-09-12T06:22:45;64.93;;;44.45;;
19830;SDS011;10076;52.008;4.708;2023-09-12T06:25:10;68.20;;;45.08;;
19830;SDS011;10076;52.008;4.708;2023-09-12T06:27:36;68.03;;;44.83;;
19830;SDS011;10076;52.008;4.708;2023-09-12T06:30:01;70.88;;;44.67;;
19830;SDS011;10076;52.008;4.708;2023-09-12T06:32:27;74.82;;;48.22;;
19830;SDS011;10076;52.008;4.708;2023-09-12T06:34:52;64.47;;;46.25;;
19830;SDS011;10076;52.008;4.708;2023-09-12T06:37:18;66.13;;;44.38;;
19830;SDS011;10076;52.008;4.708;2023-09-12T06:39:43;72.78;;;45.50;;
19830;SDS011;10076;52.008;4.708;2023-09-12T06:42:09;73.32;;;45.40;;
19830;SDS011;10076;52.008;4.708;2023-09-12T06:44:34;69.57;;;42.13;;
19830;SDS011;10076;52.008;4.708;2023-09-12T06:47:00;69.85;;;42.90;;
19830;SDS011;10076;52.008;4.708;2023-09-12T06:49:25;71.82;;;42.03;;
19830;SDS011;10076;52.008;4.708;2023-09-12T06:51:50;78.80;;;44.15;;
19830;SDS011;10076;52.008;4.708;2023-09-12T06:54:16;73.55;;;41.58;;
19830;SDS011;10076;52.008;4.708;2023-09-12T06:56:41;69.65;;;44.60;;
19830;SDS011;10076;52.008;4.708;2023-09-12T06:59:07;69.05;;;42.72;;
19830;SDS011;10076;52.008;4.708;2023-09-12T07:01:33;76.05;;;45.08;;
19830;SDS011;10076;52.008;4.708;2023-09-12T07:03:59;72.93;;;43.92;;
19830;SDS011;10076;52.008;4.708;2023-09-12T07:06:24;68.45;;;42.70;;
19830;SDS011;10076;52.008;4.708;2023-09-12T07:08:49;71.53;;;44.47;;
19830;SDS011;10076;52.008;4.708;2023-09-12T07:11:16;77.82;;;45.67;;
19830;SDS011;10076;52.008;4.708;2023-09-12T07:13:41;69.03;;;43.28;;
19830;SDS011;10076;52.008;4.708;2023-09-12T07:16:07;72.68;;;43.97;;
19830;SDS011;10076;52.008;4.708;2023-09-12T07:18:32;76.00;;;45.58;;
19830;SDS011;10076;52.008;4.708;2023-09-12T07:21:01;64.80;;;43.80;;
19830;SDS011;10076;52.008;4.708;2023-09-12T07:23:28;64.60;;;42.58;;
19830;SDS011;10076;52.008;4.708;2023-09-12T07:25:54;73.85;;;46.50;;
19830;SDS011;10076;52.008;4.708;2023-09-12T07:28:22;73.45;;;46.03;;
19830;SDS011;10076;52.008;4.708;2023-09-12T07:30:48;72.20;;;44.78;;
19830;SDS011;10076;52.008;4.708;2023-09-12T07:33:13;63.90;;;44.03;;
19830;SDS011;10076;52.008;4.708;2023-09-12T07:35:39;69.15;;;44.38;;
19830;SDS011;10076;52.008;4.708;2023-09-12T07:38:04;76.68;;;47.55;;
19830;SDS011;10076;52.008;4.708;2023-09-12T07:40:29;74.10;;;47.83;;
19830;SDS011;10076;52.008;4.708;2023-09-12T07:42:55;72.07;;;47.22;;
19830;SDS011;10076;52.008;4.708;2023-09-12T07:45:20;70.57;;;47.67;;
19830;SDS011;10076;52.008;4.708;2023-09-12T07:47:46;70.97;;;45.53;;
19830;SDS011;10076;52.008;4.708;2023-09-12T07:50:11;72.78;;;47.10;;
19830;SDS011;10076;52.008;4.708;2023-09-12T07:52:36;71.20;;;46.17;;
19830;SDS011;10076;52.008;4.708;2023-09-12T07:55:02;68.40;;;45.78;;
19830;SDS011;10076;52.008;4.708;2023-09-12T07:57:29;69.35;;;48.50;;
19830;SDS011;10076;52.008;4.708;2023-09-12T07:59:55;76.68;;;49.03;;
19830;SDS011;10076;52.008;4.708;2023-09-12T08:02:21;70.68;;;47.53;;
19830;SDS011;10076;52.008;4.708;2023-09-12T08:04:46;66.18;;;45.45;;
19830;SDS011;10076;52.008;4.708;2023-09-12T08:07:12;70.95;;;48.03;;
19830;SDS011;10076;52.008;4.708;2023-09-12T08:09:51;67.32;;;49.08;;
19830;SDS011;10076;52.008;4.708;2023-09-12T08:12:18;61.55;;;47.20;;
19830;SDS011;10076;52.008;4.708;2023-09-12T08:14:44;68.90;;;48.42;;
19830;SDS011;10076;52.008;4.708;2023-09-12T08:17:10;64.78;;;47.42;;
19830;SDS011;10076;52.008;4.708;2023-09-12T08:19:36;65.97;;;46.08;;
19830;SDS011;10076;52.008;4.708;2023-09-12T08:22:01;64.53;;;47.38;;
19830;SDS011;10076;52.008;4.708;2023-09-12T08:24:27;62.55;;;47.10;;
19830;SDS011;10076;52.008;4.708;2023-09-12T08:26:52;68.03;;;48.15;;
19830;SDS011;10076;52.008;4.708;2023-09-12T08:29:18;66.65;;;47.88;;
19830;SDS011;10076;52.008;4.708;2023-09-12T08:31:43;64.80;;;48.40;;
19830;SDS011;10076;52.008;4.708;2023-09-12T08:34:10;69.05;;;49.28;;
19830;SDS011;10076;52.008;4.708;2023-09-12T08:36:35;67.10;;;49.75;;
19830;SDS011;10076;52.008;4.708;2023-09-12T08:39:01;63.05;;;48.38;;
19830;SDS011;10076;52.008;4.708;2023-09-12T08:41:26;69.50;;;51.88;;
19830;SDS011;10076;52.008;4.708;2023-09-12T08:43:51;67.13;;;47.53;;
19830;SDS011;10076;52.008;4.708;2023-09-12T08:46:17;60.08;;;48.72;;
19830;SDS011;10076;52.008;4.708;2023-09-12T08:48:43;63.75;;;48.60;;
19830;SDS011;10076;52.008;4.708;2023-09-12T08:51:11;64.07;;;51.85;;
19830;SDS011;10076;52.008;4.708;2023-09-12T08:53:37;62.88;;;50.75;;
19830;SDS011;10076;52.008;4.708;2023-09-12T08:56:03;61.35;;;49.67;;
19830;SDS011;10076;52.008;4.708;2023-09-12T08:58:30;63.25;;;51.30;;
19830;SDS011;10076;52.008;4.708;2023-09-12T09:00:57;59.17;;;49.50;;
19830;SDS011;10076;52.008;4.708;2023-09-12T09:03:23;63.65;;;51.40;;
19830;SDS011;10076;52.008;4.708;2023-09-12T09:05:49;59.08;;;51.40;;
19830;SDS011;10076;52.008;4.708;2023-09-12T09:08:17;61.25;;;53.63;;
19830;SDS011;10076;52.008;4.708;2023-09-12T09:10:54;65.38;;;54.00;;
19830;SDS011;10076;52.008;4.708;2023-09-12T09:13:24;59.17;;;51.42;;
19830;SDS011;10076;52.008;4.708;2023-09-12T09:15:55;56.80;;;50.55;;
19830;SDS011;10076;52.008;4.708;2023-09-12T09:18:57;61.92;;;48.33;;
19830;SDS011;10076;52.008;4.708;2023-09-12T09:21:25;63.30;;;48.92;;
19830;SDS011;10076;52.008;4.708;2023-09-12T09:23:53;59.58;;;48.75;;
19830;SDS011;10076;52.008;4.708;2023-09-12T09:26:19;58.83;;;49.83;;
19830;SDS011;10076;52.008;4.708;2023-09-12T09:28:45;58.58;;;52.28;;
19830;SDS011;10076;52.008;4.708;2023-09-12T09:31:25;58.58;;;49.92;;
19830;SDS011;10076;52.008;4.708;2023-09-12T09:33:50;62.25;;;52.90;;
19830;SDS011;10076;52.008;4.708;2023-09-12T09:36:17;57.22;;;48.67;;
19830;SDS011;10076;52.008;4.708;2023-09-12T09:38:42;59.75;;;50.03;;
19830;SDS011;10076;52.008;4.708;2023-09-12T09:41:08;59.65;;;49.20;;
19830;SDS011;10076;52.008;4.708;2023-09-12T09:43:34;57.10;;;46.90;;
19830;SDS011;10076;52.008;4.708;2023-09-12T09:46:00;55.95;;;48.92;;
19830;SDS011;10076;52.008;4.708;2023-09-12T09:48:26;58.03;;;48.50;;
19830;SDS011;10076;52.008;4.708;2023-09-12T09:51:01;56.03;;;46.75;;
19830;SDS011;10076;52.008;4.708;2023-09-12T09:53:28;51.92;;;46.30;;
19830;SDS011;10076;52.008;4.708;2023-09-12T09:58:52;58.10;;;45.53;;
19830;SDS011;10076;52.008;4.708;2023-09-12T10:01:22;54.78;;;44.95;;
19830;SDS011;10076;52.008;4.708;2023-09-12T10:03:51;57.42;;;46.88;;
19830;SDS011;10076;52.008;4.708;2023-09-12T10:06:18;52.08;;;44.83;;
19830;SDS011;10076;52.008;4.708;2023-09-12T10:08:45;53.17;;;45.92;;
19830;SDS011;10076;52.008;4.708;2023-09-12T10:11:14;52.15;;;45.35;;
19830;SDS011;10076;52.008;4.708;2023-09-12T10:13:45;51.17;;;45.78;;
19830;SDS011;10076;52.008;4.708;2023-09-12T10:16:13;52.50;;;46.78;;
19830;SDS011;10076;52.008;4.708;2023-09-12T10:18:43;55.47;;;46.92;;
19830;SDS011;10076;52.008;4.708;2023-09-12T10:21:25;49.03;;;43.63;;
19830;SDS011;10076;52.008;4.708;2023-09-12T10:23:55;47.88;;;42.75;;
19830;SDS011;10076;52.008;4.708;2023-09-12T10:26:23;45.03;;;40.13;;
19830;SDS011;10076;52.008;4.708;2023-09-12T10:28:49;45.38;;;40.47;;
19830;SDS011;10076;52.008;4.708;2023-09-12T10:31:16;42.45;;;38.05;;
19830;SDS011;10076;52.008;4.708;2023-09-12T10:33:42;42.25;;;37.83;;
19830;SDS011;10076;52.008;4.708;2023-09-12T10:36:09;41.83;;;37.38;;
19830;SDS011;10076;52.008;4.708;2023-09-12T10:38:47;41.97;;;37.38;;
19830;SDS011;10076;52.008;4.708;2023-09-12T10:41:14;41.58;;;36.45;;
19830;SDS011;10076;52.008;4.708;2023-09-12T10:43:41;39.95;;;35.58;;
19830;SDS011;10076;52.008;4.708;2023-09-12T10:46:08;39.42;;;34.95;;
19830;SDS011;10076;52.008;4.708;2023-09-12T10:48:34;43.75;;;36.75;;
19830;SDS011;10076;52.008;4.708;2023-09-12T10:51:01;33.65;;;30.02;;
19830;SDS011;10076;52.008;4.708;2023-09-12T10:53:30;34.80;;;29.52;;
19830;SDS011;10076;52.008;4.708;2023-09-12T10:56:14;31.52;;;28.23;;
19830;SDS011;10076;52.008;4.708;2023-09-12T11:01:29;32.65;;;28.23;;
19830;SDS011;10076;52.008;4.708;2023-09-12T11:03:55;32.15;;;28.73;;
19830;SDS011;10076;52.008;4.708;2023-09-12T11:06:30;31.60;;;28.20;;
19830;SDS011;10076;52.008;4.708;2023-09-12T11:11:47;30.88;;;27.55;;
19830;SDS011;10076;52.008;4.708;2023-09-12T11:14:14;29.95;;;27.05;;
19830;SDS011;10076;52.008;4.708;2023-09-12T11:16:41;30.77;;;27.52;;
19830;SDS011;10076;52.008;4.708;2023-09-12T11:19:17;30.73;;;27.55;;
19830;SDS011;10076;52.008;4.708;2023-09-12T11:21:49;30.42;;;27.33;;
19830;SDS011;10076;52.008;4.708;2023-09-12T11:24:19;31.08;;;27.80;;
19830;SDS011;10076;52.008;4.708;2023-09-12T11:27:01;29.55;;;26.35;;
19830;SDS011;10076;52.008;4.708;2023-09-12T11:29:39;30.48;;;27.38;;
19830;SDS011;10076;52.008;4.708;2023-09-12T11:32:05;31.08;;;27.77;;
19830;SDS011;10076;52.008;4.708;2023-09-12T11:34:41;30.35;;;27.23;;
19830;SDS011;10076;52.008;4.708;2023-09-12T11:37:07;30.40;;;27.13;;
19830;SDS011;10076;52.008;4.708;2023-09-12T11:39:34;31.35;;;28.00;;
19830;SDS011;10076;52.008;4.708;2023-09-12T11:42:02;29.73;;;26.50;;
19830;SDS011;10076;52.008;4.708;2023-09-12T11:44:29;30.73;;;27.42;;
19830;SDS011;10076;52.008;4.708;2023-09-12T11:46:56;31.30;;;27.88;;
19830;SDS011;10076;52.008;4.708;2023-09-12T11:49:28;30.23;;;27.13;;
19830;SDS011;10076;52.008;4.708;2023-09-12T11:52:00;30.85;;;27.02;;
19830;SDS011;10076;52.008;4.708;2023-09-12T11:54:26;30.38;;;27.23;;
19830;SDS011;10076;52.008;4.708;2023-09-12T11:56:52;29.42;;;26.40;;
19830;SDS011;10076;52.008;4.708;2023-09-12T11:59:30;30.33;;;26.90;;
19830;SDS011;10076;52.008;4.708;2023-09-12T12:01:56;27.63;;;24.92;;
19830;SDS011;10076;52.008;4.708;2023-09-12T12:04:22;19.92;;;18.42;;
19830;SDS011;10076;52.008;4.708;2023-09-12T12:06:50;18.45;;;17.25;;
19830;SDS011;10076;52.008;4.708;2023-09-12T12:09:16;17.95;;;16.75;;
19830;SDS011;10076;52.008;4.708;2023-09-12T12:11:46;18.15;;;16.88;;
19830;SDS011;10076;52.008;4.708;2023-09-12T12:16:40;18.30;;;17.10;;
19830;SDS011;10076;52.008;4.708;2023-09-12T12:19:05;18.27;;;17.08;;
19830;SDS011;10076;52.008;4.708;2023-09-12T12:21:31;19.30;;;17.90;;
19830;SDS011;10076;52.008;4.708;2023-09-12T12:23:57;18.60;;;17.30;;
19830;SDS011;10076;52.008;4.708;2023-09-12T12:26:24;19.30;;;17.92;;
19830;SDS011;10076;52.008;4.708;2023-09-12T12:28:50;19.55;;;18.02;;
19830;SDS011;10076;52.008;4.708;2023-09-12T12:31:16;19.27;;;17.88;;
19830;SDS011;10076;52.008;4.708;2023-09-12T12:33:47;18.70;;;17.30;;
19830;SDS011;10076;52.008;4.708;2023-09-12T12:36:13;18.83;;;17.33;;
19830;SDS011;10076;52.008;4.708;2023-09-12T12:38:38;18.23;;;16.90;;
19830;SDS011;10076;52.008;4.708;2023-09-12T12:41:09;18.17;;;16.98;;
19830;SDS011;10076;52.008;4.708;2023-09-12T12:43:35;17.77;;;16.58;;
19830;SDS011;10076;52.008;4.708;2023-09-12T12:46:01;18.15;;;16.85;;
19830;SDS011;10076;52.008;4.708;2023-09-12T12:48:32;18.58;;;17.27;;
19830;SDS011;10076;52.008;4.708;2023-09-12T12:50:59;18.17;;;16.88;;
19830;SDS011;10076;52.008;4.708;2023-09-12T12:53:40;19.23;;;17.70;;
19830;SDS011;10076;52.008;4.708;2023-09-12T12:56:06;18.83;;;17.38;;
19830;SDS011;10076;52.008;4.708;2023-09-12T12:58:32;18.02;;;16.83;;
19830;SDS011;10076;52.008;4.708;2023-09-12T13:00:58;17.75;;;16.55;;
19830;SDS011;10076;52.008;4.708;2023-09-12T13:03:24;18.50;;;17.10;;
19830;SDS011;10076;52.008;4.708;2023-09-12T13:05:49;18.40;;;17.10;;
19830;SDS011;10076;52.008;4.708;2023-09-12T13:08:14;18.13;;;16.73;;
19830;SDS011;10076;52.008;4.708;2023-09-12T13:10:39;17.20;;;16.08;;
19830;SDS011;10076;52.008;4.708;2023-09-12T13:13:07;17.88;;;16.50;;
19830;SDS011;10076;52.008;4.708;2023-09-12T13:15:32;17.58;;;16.45;;
19830;SDS011;10076;52.008;4.708;2023-09-12T13:17:58;18.23;;;16.88;;
19830;SDS011;10076;52.008;4.708;2023-09-12T13:20:23;18.30;;;16.83;;
19830;SDS011;10076;52.008;4.708;2023-09-12T13:22:48;18.05;;;16.75;;
19830;SDS011;10076;52.008;4.708;2023-09-12T13:25:14;18.25;;;16.95;;
19830;SDS011;10076;52.008;4.708;2023-09-12T13:27:39;18.60;;;17.20;;
19830;SDS011;10076;52.008;4.708;2023-09-12T13:30:05;18.85;;;17.45;;
19830;SDS011;10076;52.008;4.708;2023-09-12T13:32:31;18.83;;;17.50;;
19830;SDS011;10076;52.008;4.708;2023-09-12T13:34:58;19.60;;;18.08;;
19830;SDS011;10076;52.008;4.708;2023-09-12T13:37:23;19.40;;;18.00;;
19830;SDS011;10076;52.008;4.708;2023-09-12T13:39:48;20.13;;;18.63;;
19830;SDS011;10076;52.008;4.708;2023-09-12T13:42:15;19.85;;;18.40;;
19830;SDS011;10076;52.008;4.708;2023-09-12T13:44:44;19.98;;;18.48;;
19830;SDS011;10076;52.008;4.708;2023-09-12T13:47:11;20.85;;;19.20;;
19830;SDS011;10076;52.008;4.708;2023-09-12T13:49:37;21.13;;;19.42;;
19830;SDS011;10076;52.008;4.708;2023-09-12T13:52:02;22.95;;;21.00;;
19830;SDS011;10076;52.008;4.708;2023-09-12T13:54:28;23.65;;;21.63;;
19830;SDS011;10076;52.008;4.708;2023-09-12T13:56:53;22.00;;;20.20;;
19830;SDS011;10076;52.008;4.708;2023-09-12T13:59:18;21.23;;;19.63;;
19830;SDS011;10076;52.008;4.708;2023-09-12T14:01:45;20.33;;;18.58;;
19830;SDS011;10076;52.008;4.708;2023-09-12T14:04:11;18.40;;;17.00;;
19830;SDS011;10076;52.008;4.708;2023-09-12T14:06:36;19.35;;;17.90;;
19830;SDS011;10076;52.008;4.708;2023-09-12T14:09:01;19.63;;;17.98;;
19830;SDS011;10076;52.008;4.708;2023-09-12T14:11:27;19.20;;;17.83;;
19830;SDS011;10076;52.008;4.708;2023-09-12T14:13:52;18.55;;;17.35;;
19830;SDS011;10076;52.008;4.708;2023-09-12T14:16:17;19.38;;;17.90;;
19830;SDS011;10076;52.008;4.708;2023-09-12T14:18:43;19.58;;;18.17;;
19830;SDS011;10076;52.008;4.708;2023-09-12T14:21:08;19.67;;;18.27;;
19830;SDS011;10076;52.008;4.708;2023-09-12T14:23:33;20.15;;;18.63;;
19830;SDS011;10076;52.008;4.708;2023-09-12T14:25:59;21.50;;;19.85;;
19830;SDS011;10076;52.008;4.708;2023-09-12T14:28:24;20.83;;;19.23;;
19830;SDS011;10076;52.008;4.708;2023-09-12T14:30:49;21.60;;;19.90;;
19830;SDS011;10076;52.008;4.708;2023-09-12T14:33:15;21.85;;;20.15;;